sensor_id;sensor_type;location;lat;lon;timestamp;temperature;humidity
67557;DHT22;54387;53.526;49.300;2023-03-08T00:01:27;-1.30;60.50
67557;DHT22;54387;53.526;49.300;2023-03-08T00:03:55;-1.30;60.40
67557;DHT22;54387;53.526;49.300;2023-03-08T00:06:22;-1.30;60.30
67557;DHT22;54387;53.526;49.300;2023-03-08T00:08:48;-1.20;60.30
67557;DHT22;54387;53.526;49.300;2023-03-08T00:11:15;-1.20;60.30
67557;DHT22;54387;53.526;49.300;2023-03-08T00:13:41;-1.10;60.20
67557;DHT22;54387;53.526;49.300;2023-03-08T00:16:08;-1.10;60.10
67557;DHT22;54387;53.526;49.300;2023-03-08T00:18:35;-1.00;60.00
67557;DHT22;54387;53.526;49.300;2023-03-08T00:21:02;-1.00;60.00
67557;DHT22;54387;53.526;49.300;2023-03-08T00:23:28;-0.90;60.00
67557;DHT22;54387;53.526;49.300;2023-03-08T00:25:54;-0.90;59.80
67557;DHT22;54387;53.526;49.300;2023-03-08T00:28:21;-0.90;59.70
67557;DHT22;54387;53.526;49.300;2023-03-08T00:30:54;-0.80;59.80
67557;DHT22;54387;53.526;49.300;2023-03-08T00:33:20;-0.80;59.80
67557;DHT22;54387;53.526;49.300;2023-03-08T00:35:53;-0.80;59.90
67557;DHT22;54387;53.526;49.300;2023-03-08T00:38:19;-0.80;60.00
67557;DHT22;54387;53.526;49.300;2023-03-08T00:40:45;-0.70;60.10
67557;DHT22;54387;53.526;49.300;2023-03-08T00:43:11;-0.80;60.20
67557;DHT22;54387;53.526;49.300;2023-03-08T00:45:37;-0.80;60.50
67557;DHT22;54387;53.526;49.300;2023-03-08T00:48:04;-0.80;60.70
67557;DHT22;54387;53.526;49.300;2023-03-08T00:50:30;-0.80;60.90
67557;DHT22;54387;53.526;49.300;2023-03-08T00:52:56;-0.80;61.20
67557;DHT22;54387;53.526;49.300;2023-03-08T00:55:22;-0.80;61.40
67557;DHT22;54387;53.526;49.300;2023-03-08T00:57:48;-0.90;61.60
67557;DHT22;54387;53.526;49.300;2023-03-08T01:00:14;-0.90;62.10
67557;DHT22;54387;53.526;49.300;2023-03-08T01:02:41;-1.00;62.40
67557;DHT22;54387;53.526;49.300;2023-03-08T01:05:07;-1.00;62.70
67557;DHT22;54387;53.526;49.300;2023-03-08T01:07:33;-1.10;62.90
67557;DHT22;54387;53.526;49.300;2023-03-08T01:09:59;-1.10;63.20
67557;DHT22;54387;53.526;49.300;2023-03-08T01:12:25;-1.20;63.50
67557;DHT22;54387;53.526;49.300;2023-03-08T01:14:52;-1.20;63.70
67557;DHT22;54387;53.526;49.300;2023-03-08T01:17:18;-1.30;63.90
67557;DHT22;54387;53.526;49.300;2023-03-08T01:19:44;-1.30;64.30
67557;DHT22;54387;53.526;49.300;2023-03-08T01:22:10;-1.40;64.70
67557;DHT22;54387;53.526;49.300;2023-03-08T01:24:36;-1.50;65.00
67557;DHT22;54387;53.526;49.300;2023-03-08T01:27:02;-1.40;65.30
67557;DHT22;54387;53.526;49.300;2023-03-08T01:29:28;-1.50;65.50
67557;DHT22;54387;53.526;49.300;2023-03-08T01:31:54;-1.40;65.60
67557;DHT22;54387;53.526;49.300;2023-03-08T01:34:20;-1.40;65.70
67557;DHT22;54387;53.526;49.300;2023-03-08T01:36:46;-1.30;65.90
67557;DHT22;54387;53.526;49.300;2023-03-08T01:39:12;-1.30;66.00
67557;DHT22;54387;53.526;49.300;2023-03-08T01:41:38;-1.30;66.30
67557;DHT22;54387;53.526;49.300;2023-03-08T01:44:05;-1.30;66.30
67557;DHT22;54387;53.526;49.300;2023-03-08T01:46:32;-1.20;66.50
67557;DHT22;54387;53.526;49.300;2023-03-08T01:49:16;-1.10;66.50
67557;DHT22;54387;53.526;49.300;2023-03-08T01:51:45;-1.10;66.80
67557;DHT22;54387;53.526;49.300;2023-03-08T01:54:16;-1.10;66.90
67557;DHT22;54387;53.526;49.300;2023-03-08T01:56:43;-1.00;67.00
67557;DHT22;54387;53.526;49.300;2023-03-08T01:59:09;-1.00;67.10
67557;DHT22;54387;53.526;49.300;2023-03-08T02:01:36;-1.00;67.10
67557;DHT22;54387;53.526;49.300;2023-03-08T02:04:03;-0.90;67.20
67557;DHT22;54387;53.526;49.300;2023-03-08T02:06:30;-0.90;67.10
67557;DHT22;54387;53.526;49.300;2023-03-08T02:08:56;-0.90;67.20
67557;DHT22;54387;53.526;49.300;2023-03-08T02:11:22;-0.90;67.20
67557;DHT22;54387;53.526;49.300;2023-03-08T02:13:49;-0.80;67.20
67557;DHT22;54387;53.526;49.300;2023-03-08T02:16:16;-0.80;67.20
67557;DHT22;54387;53.526;49.300;2023-03-08T02:18:54;-0.80;67.10
67557;DHT22;54387;53.526;49.300;2023-03-08T02:21:20;-0.70;67.10
67557;DHT22;54387;53.526;49.300;2023-03-08T02:23:47;-0.70;67.10
67557;DHT22;54387;53.526;49.300;2023-03-08T02:26:13;-0.60;67.10
67557;DHT22;54387;53.526;49.300;2023-03-08T02:28:39;-0.60;67.10
67557;DHT22;54387;53.526;49.300;2023-03-08T02:31:05;-0.60;67.00
67557;DHT22;54387;53.526;49.300;2023-03-08T02:33:31;-0.50;67.00
67557;DHT22;54387;53.526;49.300;2023-03-08T02:36:03;-0.50;66.90
67557;DHT22;54387;53.526;49.300;2023-03-08T02:38:29;-0.50;66.90
67557;DHT22;54387;53.526;49.300;2023-03-08T02:40:55;-0.50;66.90
67557;DHT22;54387;53.526;49.300;2023-03-08T02:43:21;-0.40;67.00
67557;DHT22;54387;53.526;49.300;2023-03-08T02:45:47;-0.40;67.60
67557;DHT22;54387;53.526;49.300;2023-03-08T02:48:14;-0.40;67.20
67557;DHT22;54387;53.526;49.300;2023-03-08T02:50:40;-0.40;67.40
67557;DHT22;54387;53.526;49.300;2023-03-08T02:53:07;-0.40;67.30
67557;DHT22;54387;53.526;49.300;2023-03-08T02:55:33;-0.30;67.30
67557;DHT22;54387;53.526;49.300;2023-03-08T02:58:03;-0.30;67.30
67557;DHT22;54387;53.526;49.300;2023-03-08T03:00:29;-0.30;67.30
67557;DHT22;54387;53.526;49.300;2023-03-08T03:02:56;-0.30;67.40
67557;DHT22;54387;53.526;49.300;2023-03-08T03:05:22;-0.30;67.30
67557;DHT22;54387;53.526;49.300;2023-03-08T03:07:48;-0.20;67.40
67557;DHT22;54387;53.526;49.300;2023-03-08T03:10:14;-0.20;67.90
67557;DHT22;54387;53.526;49.300;2023-03-08T03:12:41;-0.20;67.40
67557;DHT22;54387;53.526;49.300;2023-03-08T03:15:08;-0.20;67.30
67557;DHT22;54387;53.526;49.300;2023-03-08T03:17:35;-0.20;67.40
67557;DHT22;54387;53.526;49.300;2023-03-08T03:20:04;-0.10;67.40
67557;DHT22;54387;53.526;49.300;2023-03-08T03:22:31;-0.10;67.40
67557;DHT22;54387;53.526;49.300;2023-03-08T03:24:57;-0.10;67.40
67557;DHT22;54387;53.526;49.300;2023-03-08T03:27:24;-0.10;67.40
67557;DHT22;54387;53.526;49.300;2023-03-08T03:29:50;-0.10;67.50
67557;DHT22;54387;53.526;49.300;2023-03-08T03:32:16;-0.10;67.50
67557;DHT22;54387;53.526;49.300;2023-03-08T03:34:42;0.00;67.80
67557;DHT22;54387;53.526;49.300;2023-03-08T03:37:08;0.00;68.00
67557;DHT22;54387;53.526;49.300;2023-03-08T03:39:35;0.00;68.20
67557;DHT22;54387;53.526;49.300;2023-03-08T03:42:02;0.00;68.30
67557;DHT22;54387;53.526;49.300;2023-03-08T03:44:28;0.00;68.50
67557;DHT22;54387;53.526;49.300;2023-03-08T03:46:55;0.10;68.70
67557;DHT22;54387;53.526;49.300;2023-03-08T03:49:22;0.10;68.80
67557;DHT22;54387;53.526;49.300;2023-03-08T03:51:48;0.20;69.00
67557;DHT22;54387;53.526;49.300;2023-03-08T03:54:14;0.10;69.30
67557;DHT22;54387;53.526;49.300;2023-03-08T03:56:40;0.10;69.30
67557;DHT22;54387;53.526;49.300;2023-03-08T03:59:06;0.20;69.40
67557;DHT22;54387;53.526;49.300;2023-03-08T04:01:33;0.20;69.60
67557;DHT22;54387;53.526;49.300;2023-03-08T04:03:59;0.20;69.80
67557;DHT22;54387;53.526;49.300;2023-03-08T04:06:26;0.20;70.00
67557;DHT22;54387;53.526;49.300;2023-03-08T04:08:54;0.20;70.20
67557;DHT22;54387;53.526;49.300;2023-03-08T04:11:21;0.30;70.50
67557;DHT22;54387;53.526;49.300;2023-03-08T04:13:48;0.30;70.60
67557;DHT22;54387;53.526;49.300;2023-03-08T04:16:19;0.30;70.70
67557;DHT22;54387;53.526;49.300;2023-03-08T04:18:46;0.30;70.70
67557;DHT22;54387;53.526;49.300;2023-03-08T04:21:13;0.30;70.80
67557;DHT22;54387;53.526;49.300;2023-03-08T04:23:39;0.30;71.00
67557;DHT22;54387;53.526;49.300;2023-03-08T04:26:05;0.40;71.10
67557;DHT22;54387;53.526;49.300;2023-03-08T04:28:32;0.40;71.10
67557;DHT22;54387;53.526;49.300;2023-03-08T04:30:59;0.40;71.10
67557;DHT22;54387;53.526;49.300;2023-03-08T04:33:25;0.40;71.30
67557;DHT22;54387;53.526;49.300;2023-03-08T04:35:51;0.40;71.40
67557;DHT22;54387;53.526;49.300;2023-03-08T04:38:17;0.40;71.50
67557;DHT22;54387;53.526;49.300;2023-03-08T04:40:53;0.50;71.60
67557;DHT22;54387;53.526;49.300;2023-03-08T04:43:40;0.50;71.60
67557;DHT22;54387;53.526;49.300;2023-03-08T04:46:08;0.50;71.80
67557;DHT22;54387;53.526;49.300;2023-03-08T04:48:35;0.50;71.80
67557;DHT22;54387;53.526;49.300;2023-03-08T04:51:02;0.50;71.90
67557;DHT22;54387;53.526;49.300;2023-03-08T04:53:30;0.60;72.10
67557;DHT22;54387;53.526;49.300;2023-03-08T04:55:56;0.60;72.30
67557;DHT22;54387;53.526;49.300;2023-03-08T04:58:25;0.60;72.50
67557;DHT22;54387;53.526;49.300;2023-03-08T05:00:52;0.60;72.50
67557;DHT22;54387;53.526;49.300;2023-03-08T05:03:18;0.70;72.60
67557;DHT22;54387;53.526;49.300;2023-03-08T05:05:54;0.70;72.80
67557;DHT22;54387;53.526;49.300;2023-03-08T05:08:21;0.70;72.90
67557;DHT22;54387;53.526;49.300;2023-03-08T05:10:48;0.80;73.10
67557;DHT22;54387;53.526;49.300;2023-03-08T05:13:14;0.80;73.10
67557;DHT22;54387;53.526;49.300;2023-03-08T05:15:41;0.90;73.20
67557;DHT22;54387;53.526;49.300;2023-03-08T05:18:07;0.90;73.20
67557;DHT22;54387;53.526;49.300;2023-03-08T05:20:33;0.90;73.20
67557;DHT22;54387;53.526;49.300;2023-03-08T05:23:01;1.00;73.20
67557;DHT22;54387;53.526;49.300;2023-03-08T05:25:28;1.10;73.10
67557;DHT22;54387;53.526;49.300;2023-03-08T05:27:55;1.10;73.00
67557;DHT22;54387;53.526;49.300;2023-03-08T05:30:22;1.10;73.50
67557;DHT22;54387;53.526;49.300;2023-03-08T05:32:48;1.10;72.90
67557;DHT22;54387;53.526;49.300;2023-03-08T05:35:14;1.20;72.90
67557;DHT22;54387;53.526;49.300;2023-03-08T05:37:40;1.20;72.80
67557;DHT22;54387;53.526;49.300;2023-03-08T05:40:07;1.20;72.80
67557;DHT22;54387;53.526;49.300;2023-03-08T05:42:33;1.20;72.60
67557;DHT22;54387;53.526;49.300;2023-03-08T05:44:59;1.30;72.60
67557;DHT22;54387;53.526;49.300;2023-03-08T05:47:25;1.30;72.50
67557;DHT22;54387;53.526;49.300;2023-03-08T05:49:53;1.30;72.50
67557;DHT22;54387;53.526;49.300;2023-03-08T05:52:19;1.40;72.50
67557;DHT22;54387;53.526;49.300;2023-03-08T05:54:45;1.40;72.30
67557;DHT22;54387;53.526;49.300;2023-03-08T05:57:11;1.50;72.30
67557;DHT22;54387;53.526;49.300;2023-03-08T05:59:37;1.60;72.20
67557;DHT22;54387;53.526;49.300;2023-03-08T06:02:03;1.60;72.10
67557;DHT22;54387;53.526;49.300;2023-03-08T06:04:29;1.70;71.90
67557;DHT22;54387;53.526;49.300;2023-03-08T06:06:55;1.80;71.80
67557;DHT22;54387;53.526;49.300;2023-03-08T06:09:21;1.80;71.60
67557;DHT22;54387;53.526;49.300;2023-03-08T06:11:47;1.90;71.30
67557;DHT22;54387;53.526;49.300;2023-03-08T06:14:13;1.90;71.20
67557;DHT22;54387;53.526;49.300;2023-03-08T06:16:39;1.90;71.20
67557;DHT22;54387;53.526;49.300;2023-03-08T06:19:05;2.00;71.00
67557;DHT22;54387;53.526;49.300;2023-03-08T06:21:31;2.00;70.80
67557;DHT22;54387;53.526;49.300;2023-03-08T06:23:57;2.00;70.60
67557;DHT22;54387;53.526;49.300;2023-03-08T06:26:22;2.00;70.60
67557;DHT22;54387;53.526;49.300;2023-03-08T06:28:48;2.00;70.40
67557;DHT22;54387;53.526;49.300;2023-03-08T06:31:15;2.10;70.50
67557;DHT22;54387;53.526;49.300;2023-03-08T06:33:41;2.30;70.50
67557;DHT22;54387;53.526;49.300;2023-03-08T06:36:08;2.40;70.20
67557;DHT22;54387;53.526;49.300;2023-03-08T06:38:36;2.40;70.00
67557;DHT22;54387;53.526;49.300;2023-03-08T06:41:03;2.50;69.90
67557;DHT22;54387;53.526;49.300;2023-03-08T06:43:29;2.60;69.60
67557;DHT22;54387;53.526;49.300;2023-03-08T06:45:58;2.80;69.80
67557;DHT22;54387;53.526;49.300;2023-03-08T06:48:27;2.90;69.10
67557;DHT22;54387;53.526;49.300;2023-03-08T06:50:54;3.10;69.10
67557;DHT22;54387;53.526;49.300;2023-03-08T06:53:20;3.30;68.90
67557;DHT22;54387;53.526;49.300;2023-03-08T06:55:46;3.40;68.60
67557;DHT22;54387;53.526;49.300;2023-03-08T06:58:12;3.40;68.60
67557;DHT22;54387;53.526;49.300;2023-03-08T07:00:39;3.50;68.50
67557;DHT22;54387;53.526;49.300;2023-03-08T07:03:05;3.60;68.30
67557;DHT22;54387;53.526;49.300;2023-03-08T07:05:31;3.60;68.40
67557;DHT22;54387;53.526;49.300;2023-03-08T07:07:57;3.70;67.90
67557;DHT22;54387;53.526;49.300;2023-03-08T07:10:24;3.70;67.70
67557;DHT22;54387;53.526;49.300;2023-03-08T07:12:50;3.70;67.70
67557;DHT22;54387;53.526;49.300;2023-03-08T07:15:17;3.80;67.70
67557;DHT22;54387;53.526;49.300;2023-03-08T07:17:44;3.80;67.40
67557;DHT22;54387;53.526;49.300;2023-03-08T07:20:11;3.90;67.60
67557;DHT22;54387;53.526;49.300;2023-03-08T07:22:39;4.00;67.00
67557;DHT22;54387;53.526;49.300;2023-03-08T07:25:07;4.10;66.40
67557;DHT22;54387;53.526;49.300;2023-03-08T07:27:33;4.10;66.40
67557;DHT22;54387;53.526;49.300;2023-03-08T07:29:59;4.20;66.30
67557;DHT22;54387;53.526;49.300;2023-03-08T07:32:26;4.30;66.00
67557;DHT22;54387;53.526;49.300;2023-03-08T07:34:54;4.40;65.90
67557;DHT22;54387;53.526;49.300;2023-03-08T07:37:20;4.60;65.40
67557;DHT22;54387;53.526;49.300;2023-03-08T07:39:46;4.50;64.70
67557;DHT22;54387;53.526;49.300;2023-03-08T07:42:12;4.50;64.90
67557;DHT22;54387;53.526;49.300;2023-03-08T07:44:38;4.60;64.80
67557;DHT22;54387;53.526;49.300;2023-03-08T07:47:06;4.70;64.70
67557;DHT22;54387;53.526;49.300;2023-03-08T07:49:32;4.80;64.50
67557;DHT22;54387;53.526;49.300;2023-03-08T07:51:58;4.80;64.50
67557;DHT22;54387;53.526;49.300;2023-03-08T07:54:25;5.00;64.60
67557;DHT22;54387;53.526;49.300;2023-03-08T07:56:51;5.20;64.10
67557;DHT22;54387;53.526;49.300;2023-03-08T07:59:17;5.20;63.40
67557;DHT22;54387;53.526;49.300;2023-03-08T08:01:44;5.30;63.70
67557;DHT22;54387;53.526;49.300;2023-03-08T08:04:10;5.40;62.40
67557;DHT22;54387;53.526;49.300;2023-03-08T08:06:37;5.40;62.40
67557;DHT22;54387;53.526;49.300;2023-03-08T08:09:04;5.50;62.40
67557;DHT22;54387;53.526;49.300;2023-03-08T08:11:30;5.60;61.70
67557;DHT22;54387;53.526;49.300;2023-03-08T08:13:56;5.60;61.70
67557;DHT22;54387;53.526;49.300;2023-03-08T08:16:22;5.60;61.60
67557;DHT22;54387;53.526;49.300;2023-03-08T08:18:50;5.60;62.00
67557;DHT22;54387;53.526;49.300;2023-03-08T08:21:16;5.70;61.60
67557;DHT22;54387;53.526;49.300;2023-03-08T08:23:43;5.70;61.50
67557;DHT22;54387;53.526;49.300;2023-03-08T08:26:11;5.70;61.40
67557;DHT22;54387;53.526;49.300;2023-03-08T08:28:37;5.60;61.50
67557;DHT22;54387;53.526;49.300;2023-03-08T08:31:04;5.60;61.50
67557;DHT22;54387;53.526;49.300;2023-03-08T08:33:31;5.60;61.70
67557;DHT22;54387;53.526;49.300;2023-03-08T08:35:57;5.60;61.40
67557;DHT22;54387;53.526;49.300;2023-03-08T08:38:24;5.60;61.30
67557;DHT22;54387;53.526;49.300;2023-03-08T08:40:50;5.60;61.50
67557;DHT22;54387;53.526;49.300;2023-03-08T08:43:17;5.60;61.10
67557;DHT22;54387;53.526;49.300;2023-03-08T08:45:44;5.60;61.30
67557;DHT22;54387;53.526;49.300;2023-03-08T08:48:11;5.60;61.50
67557;DHT22;54387;53.526;49.300;2023-03-08T08:50:38;5.60;61.40
67557;DHT22;54387;53.526;49.300;2023-03-08T08:53:05;5.60;61.30
67557;DHT22;54387;53.526;49.300;2023-03-08T08:55:31;5.50;61.30
67557;DHT22;54387;53.526;49.300;2023-03-08T08:57:57;5.60;61.30
67557;DHT22;54387;53.526;49.300;2023-03-08T09:00:23;5.60;60.80
67557;DHT22;54387;53.526;49.300;2023-03-08T09:02:49;5.60;60.70
67557;DHT22;54387;53.526;49.300;2023-03-08T09:05:15;5.70;60.80
67557;DHT22;54387;53.526;49.300;2023-03-08T09:07:41;5.70;60.80
67557;DHT22;54387;53.526;49.300;2023-03-08T09:10:08;5.90;61.10
67557;DHT22;54387;53.526;49.300;2023-03-08T09:12:34;6.20;60.70
67557;DHT22;54387;53.526;49.300;2023-03-08T09:15:00;6.40;60.30
67557;DHT22;54387;53.526;49.300;2023-03-08T09:17:26;6.60;60.00
67557;DHT22;54387;53.526;49.300;2023-03-08T09:19:52;6.60;59.70
67557;DHT22;54387;53.526;49.300;2023-03-08T09:22:18;6.60;59.10
67557;DHT22;54387;53.526;49.300;2023-03-08T09:24:44;6.60;59.40
67557;DHT22;54387;53.526;49.300;2023-03-08T09:27:13;6.70;59.50
67557;DHT22;54387;53.526;49.300;2023-03-08T09:29:39;6.80;58.90
67557;DHT22;54387;53.526;49.300;2023-03-08T09:32:05;6.90;59.00
67557;DHT22;54387;53.526;49.300;2023-03-08T09:34:31;6.90;59.20
67557;DHT22;54387;53.526;49.300;2023-03-08T09:36:58;7.10;58.90
67557;DHT22;54387;53.526;49.300;2023-03-08T09:39:24;7.40;59.30
67557;DHT22;54387;53.526;49.300;2023-03-08T09:41:57;7.70;58.30
67557;DHT22;54387;53.526;49.300;2023-03-08T09:49:41;8.30;56.20
67557;DHT22;54387;53.526;49.300;2023-03-08T09:54:54;8.00;55.20
67557;DHT22;54387;53.526;49.300;2023-03-08T09:57:24;7.90;56.40
67557;DHT22;54387;53.526;49.300;2023-03-08T09:59:55;7.90;56.80
67557;DHT22;54387;53.526;49.300;2023-03-08T10:04:53;7.70;56.00
67557;DHT22;54387;53.526;49.300;2023-03-08T10:07:26;7.50;56.30
67557;DHT22;54387;53.526;49.300;2023-03-08T10:14:53;7.20;56.90
67557;DHT22;54387;53.526;49.300;2023-03-08T10:17:22;7.10;57.40
67557;DHT22;54387;53.526;49.300;2023-03-08T10:22:24;7.00;58.10
67557;DHT22;54387;53.526;49.300;2023-03-08T10:24:52;7.00;58.30
67557;DHT22;54387;53.526;49.300;2023-03-08T10:27:21;6.90;58.30
67557;DHT22;54387;53.526;49.300;2023-03-08T10:29:48;6.80;59.90
67557;DHT22;54387;53.526;49.300;2023-03-08T10:32:14;6.80;59.20
67557;DHT22;54387;53.526;49.300;2023-03-08T10:34:40;6.80;59.80
67557;DHT22;54387;53.526;49.300;2023-03-08T10:37:07;7.00;60.00
67557;DHT22;54387;53.526;49.300;2023-03-08T10:39:34;7.20;59.80
67557;DHT22;54387;53.526;49.300;2023-03-08T10:42:04;7.30;59.60
67557;DHT22;54387;53.526;49.300;2023-03-08T10:44:33;7.40;59.30
67557;DHT22;54387;53.526;49.300;2023-03-08T10:52:29;7.70;60.00
67557;DHT22;54387;53.526;49.300;2023-03-08T10:54:59;7.80;60.00
67557;DHT22;54387;53.526;49.300;2023-03-08T10:57:26;7.70;59.30
67557;DHT22;54387;53.526;49.300;2023-03-08T10:59:52;7.60;59.70
67557;DHT22;54387;53.526;49.300;2023-03-08T11:02:18;7.60;59.70
67557;DHT22;54387;53.526;49.300;2023-03-08T11:04:56;7.50;59.20
67557;DHT22;54387;53.526;49.300;2023-03-08T11:07:24;7.40;59.50
67557;DHT22;54387;53.526;49.300;2023-03-08T11:09:50;7.50;59.90
67557;DHT22;54387;53.526;49.300;2023-03-08T11:12:21;7.50;59.70
67557;DHT22;54387;53.526;49.300;2023-03-08T11:14:47;7.50;59.50
67557;DHT22;54387;53.526;49.300;2023-03-08T11:22:32;7.50;59.30
67557;DHT22;54387;53.526;49.300;2023-03-08T11:25:14;7.50;59.60
67557;DHT22;54387;53.526;49.300;2023-03-08T11:32:59;7.30;59.60
67557;DHT22;54387;53.526;49.300;2023-03-08T11:43:26;7.40;59.70
67557;DHT22;54387;53.526;49.300;2023-03-08T11:46:05;7.30;59.90
67557;DHT22;54387;53.526;49.300;2023-03-08T11:51:16;7.40;60.30
67557;DHT22;54387;53.526;49.300;2023-03-08T11:53:50;7.30;60.00
67557;DHT22;54387;53.526;49.300;2023-03-08T11:57:01;7.20;59.40
67557;DHT22;54387;53.526;49.300;2023-03-08T12:01:39;6.60;60.30
67557;DHT22;54387;53.526;49.300;2023-03-08T12:04:08;6.40;61.20
67557;DHT22;54387;53.526;49.300;2023-03-08T12:06:40;6.30;61.00
67557;DHT22;54387;53.526;49.300;2023-03-08T12:09:09;6.20;61.20
67557;DHT22;54387;53.526;49.300;2023-03-08T12:14:29;6.20;61.70
67557;DHT22;54387;53.526;49.300;2023-03-08T12:17:03;6.40;61.90
67557;DHT22;54387;53.526;49.300;2023-03-08T12:22:09;6.80;61.50
67557;DHT22;54387;53.526;49.300;2023-03-08T12:27:11;6.60;61.00
67557;DHT22;54387;53.526;49.300;2023-03-08T12:29:44;6.30;61.30
67557;DHT22;54387;53.526;49.300;2023-03-08T12:32:12;6.10;61.60
67557;DHT22;54387;53.526;49.300;2023-03-08T12:34:40;6.00;62.00
67557;DHT22;54387;53.526;49.300;2023-03-08T12:39:53;6.00;62.30
67557;DHT22;54387;53.526;49.300;2023-03-08T12:42:33;6.00;62.40
67557;DHT22;54387;53.526;49.300;2023-03-08T12:47:39;6.10;62.50
67557;DHT22;54387;53.526;49.300;2023-03-08T12:50:08;6.00;62.60
67557;DHT22;54387;53.526;49.300;2023-03-08T12:52:34;6.00;62.70
67557;DHT22;54387;53.526;49.300;2023-03-08T12:55:02;5.90;62.90
67557;DHT22;54387;53.526;49.300;2023-03-08T12:57:44;5.80;63.00
67557;DHT22;54387;53.526;49.300;2023-03-08T13:03:02;5.50;63.40
67557;DHT22;54387;53.526;49.300;2023-03-08T13:05:36;5.30;63.60
67557;DHT22;54387;53.526;49.300;2023-03-08T13:10:52;5.20;64.40
67557;DHT22;54387;53.526;49.300;2023-03-08T13:16:03;5.30;64.20
67557;DHT22;54387;53.526;49.300;2023-03-08T13:18:29;5.20;64.30
67557;DHT22;54387;53.526;49.300;2023-03-08T13:23:47;4.70;64.80
67557;DHT22;54387;53.526;49.300;2023-03-08T13:28:46;4.40;65.40
67557;DHT22;54387;53.526;49.300;2023-03-08T13:33:41;4.10;66.00
67557;DHT22;54387;53.526;49.300;2023-03-08T13:38:39;4.00;66.70
67557;DHT22;54387;53.526;49.300;2023-03-08T13:41:06;4.00;66.80
67557;DHT22;54387;53.526;49.300;2023-03-08T13:43:33;3.90;66.80
67557;DHT22;54387;53.526;49.300;2023-03-08T13:46:01;3.90;67.00
67557;DHT22;54387;53.526;49.300;2023-03-08T13:48:31;3.90;67.00
67557;DHT22;54387;53.526;49.300;2023-03-08T13:50:59;3.90;67.00
67557;DHT22;54387;53.526;49.300;2023-03-08T13:53:28;3.90;67.00
67557;DHT22;54387;53.526;49.300;2023-03-08T13:55:56;3.90;67.00
67557;DHT22;54387;53.526;49.300;2023-03-08T13:58:28;3.90;67.10
67557;DHT22;54387;53.526;49.300;2023-03-08T14:00:56;3.80;67.20
67557;DHT22;54387;53.526;49.300;2023-03-08T14:03:22;3.80;67.40
67557;DHT22;54387;53.526;49.300;2023-03-08T14:05:49;3.70;67.40
67557;DHT22;54387;53.526;49.300;2023-03-08T14:08:19;3.70;67.50
67557;DHT22;54387;53.526;49.300;2023-03-08T14:11:07;3.60;67.60
67557;DHT22;54387;53.526;49.300;2023-03-08T14:13:33;3.60;67.70
67557;DHT22;54387;53.526;49.300;2023-03-08T14:16:04;3.60;67.90
67557;DHT22;54387;53.526;49.300;2023-03-08T14:18:35;3.60;68.00
67557;DHT22;54387;53.526;49.300;2023-03-08T14:21:03;3.50;68.00
67557;DHT22;54387;53.526;49.300;2023-03-08T14:23:30;3.50;68.00
67557;DHT22;54387;53.526;49.300;2023-03-08T14:25:58;3.50;68.00
67557;DHT22;54387;53.526;49.300;2023-03-08T14:28:34;3.50;68.00
67557;DHT22;54387;53.526;49.300;2023-03-08T14:31:00;3.50;68.10
67557;DHT22;54387;53.526;49.300;2023-03-08T14:33:26;3.40;68.20
67557;DHT22;54387;53.526;49.300;2023-03-08T14:35:54;3.40;68.30
67557;DHT22;54387;53.526;49.300;2023-03-08T14:38:29;3.40;68.40
67557;DHT22;54387;53.526;49.300;2023-03-08T14:40:55;3.30;68.40
67557;DHT22;54387;53.526;49.300;2023-03-08T14:43:22;3.30;68.50
67557;DHT22;54387;53.526;49.300;2023-03-08T14:50:51;3.20;68.70
67557;DHT22;54387;53.526;49.300;2023-03-08T14:53:29;3.20;68.80
67557;DHT22;54387;53.526;49.300;2023-03-08T14:56:00;3.20;68.90
67557;DHT22;54387;53.526;49.300;2023-03-08T14:58:28;3.20;68.90
67557;DHT22;54387;53.526;49.300;2023-03-08T15:00:55;3.10;69.00
67557;DHT22;54387;53.526;49.300;2023-03-08T15:03:21;3.10;69.10
67557;DHT22;54387;53.526;49.300;2023-03-08T15:05:48;3.10;69.20
67557;DHT22;54387;53.526;49.300;2023-03-08T15:08:16;3.10;69.30
67557;DHT22;54387;53.526;49.300;2023-03-08T15:10:42;3.10;69.30
67557;DHT22;54387;53.526;49.300;2023-03-08T15:13:13;3.10;69.40
67557;DHT22;54387;53.526;49.300;2023-03-08T15:15:39;3.10;69.50
67557;DHT22;54387;53.526;49.300;2023-03-08T15:18:05;3.00;69.60
67557;DHT22;54387;53.526;49.300;2023-03-08T15:20:32;3.00;69.70
67557;DHT22;54387;53.526;49.300;2023-03-08T15:22:58;3.00;69.90
67557;DHT22;54387;53.526;49.300;2023-03-08T15:25:26;3.00;70.00
67557;DHT22;54387;53.526;49.300;2023-03-08T15:27:53;3.00;70.00
67557;DHT22;54387;53.526;49.300;2023-03-08T15:30:20;3.00;70.00
67557;DHT22;54387;53.526;49.300;2023-03-08T15:32:47;2.90;70.10
67557;DHT22;54387;53.526;49.300;2023-03-08T15:35:14;2.90;70.20
67557;DHT22;54387;53.526;49.300;2023-03-08T15:37:40;2.90;70.20
67557;DHT22;54387;53.526;49.300;2023-03-08T15:40:28;2.90;70.30
67557;DHT22;54387;53.526;49.300;2023-03-08T15:42:52;2.90;70.40
67557;DHT22;54387;53.526;49.300;2023-03-08T15:45:19;2.90;70.40
67557;DHT22;54387;53.526;49.300;2023-03-08T15:47:55;2.90;70.40
67557;DHT22;54387;53.526;49.300;2023-03-08T15:50:22;3.00;70.40
67557;DHT22;54387;53.526;49.300;2023-03-08T15:52:48;3.00;70.40
67557;DHT22;54387;53.526;49.300;2023-03-08T15:55:14;2.90;70.50
67557;DHT22;54387;53.526;49.300;2023-03-08T15:57:40;3.00;70.60
67557;DHT22;54387;53.526;49.300;2023-03-08T16:00:08;3.00;70.60
67557;DHT22;54387;53.526;49.300;2023-03-08T16:02:34;3.00;70.60
67557;DHT22;54387;53.526;49.300;2023-03-08T16:05:01;3.00;70.60
67557;DHT22;54387;53.526;49.300;2023-03-08T16:07:27;3.00;70.70
67557;DHT22;54387;53.526;49.300;2023-03-08T16:09:55;2.90;70.70
67557;DHT22;54387;53.526;49.300;2023-03-08T16:12:21;2.90;70.60
67557;DHT22;54387;53.526;49.300;2023-03-08T16:14:48;2.90;70.70
67557;DHT22;54387;53.526;49.300;2023-03-08T16:17:15;2.90;70.70
67557;DHT22;54387;53.526;49.300;2023-03-08T16:19:41;2.90;70.80
67557;DHT22;54387;53.526;49.300;2023-03-08T16:22:07;2.90;70.80
67557;DHT22;54387;53.526;49.300;2023-03-08T16:24:34;2.90;70.90
67557;DHT22;54387;53.526;49.300;2023-03-08T16:27:00;2.90;70.90
67557;DHT22;54387;53.526;49.300;2023-03-08T16:29:29;2.90;70.90
67557;DHT22;54387;53.526;49.300;2023-03-08T16:31:56;2.80;70.90
67557;DHT22;54387;53.526;49.300;2023-03-08T16:34:26;2.70;71.00
67557;DHT22;54387;53.526;49.300;2023-03-08T16:36:53;2.70;71.20
67557;DHT22;54387;53.526;49.300;2023-03-08T16:39:19;2.70;71.30
67557;DHT22;54387;53.526;49.300;2023-03-08T16:41:45;2.70;71.40
67557;DHT22;54387;53.526;49.300;2023-03-08T16:44:17;2.70;71.50
67557;DHT22;54387;53.526;49.300;2023-03-08T16:46:43;2.80;71.40
67557;DHT22;54387;53.526;49.300;2023-03-08T16:49:09;2.80;71.30
67557;DHT22;54387;53.526;49.300;2023-03-08T16:51:36;2.80;71.30
67557;DHT22;54387;53.526;49.300;2023-03-08T16:54:02;2.80;71.20